KAQR

Atoka Municipal Airport

Atoka, Oklahoma, USA
METAR KAQR 142335Z AUTO 35010G17KT 10SM OVC009 06/06 A3005 RMK AO2
Observed Flight Rules
Dec-14 @ 23:35 UTC (29 minutes ago) Instrument Flight Rules
Wind Visibility Clouds
350° at 10 knots
 Gusting to 17 knots
10 miles
  • Overcast at 900' AGL
Temperatures Readings
Current 6°C / 43°F
Dewpoint 6°C / 43°F
Humidity 100%
Altimeter 30.05" Hg
Pressure 1018 hPa
Elevation 189
METAR KAQR 142335Z AUTO 35010G17KT 10SM OVC009 06/06 A3005 RMK AO2
Observed Flight Rules
Dec-14 @ 23:35 UTC
(29 minutes ago)
IFR
Wind Visibility
350° at 10 knots
 Gusting to 17 knots
10 miles
Clouds
  • Overcast at 900' AGL
Temperature Dewpoint
6°C / 43°F 6°C / 43°F
Humidity Altimeter Pressure
100% 30.05" Hg 1018 hPa